SV1LH-1 Melissia GR current weather conditions

sailwx.info

Wind from 067 at 4 knots gusting 5

Air temperature 31.7° C
Dewpoint 14.7° C

Last reported at 2016-Jul-01 12:50 UTC.
Time now 2016-Jul-01 13:35 UTC

Location: N 38°03' E 023°51'.
View on Google Maps.

See reports from other nearby stations

  
Tides and Currents Weather Stations Pressure Air Temp Water Temp Dewpoint Dewpoint Depression Visibility Wind Speed Wind Dir Waves Ship Positions
date/time (UTC)wind fromknots sea level pressurealtimeterstation pressurevisibilityair tempwater tempwave heightnotes
2016-Jul-01 12:50 067 4 gusting 5 31.7
2016-Jul-01 12:45 112 6 gusting 11 31.7
2016-Jul-01 12:40 112 2 gusting 6 32.2
2016-Jul-01 12:35 090 5 gusting 7 31.7
2016-Jul-01 12:30 045 6 gusting 9 31.7
2016-Jul-01 12:25 090 4 gusting 6 31.7
2016-Jul-01 12:20 090 6 gusting 8 32.2
2016-Jul-01 12:15 022 5 gusting 7 32.2
2016-Jul-01 12:10 045 5 gusting 6 32.2
2016-Jul-01 12:05 135 4 gusting 6 32.2
2016-Jul-01 12:00 090 5 gusting 7 32.2
2016-Jul-01 11:55 067 5 gusting 8 32.2
2016-Jul-01 11:50 090 7 gusting 10 32.2
2016-Jul-01 11:45 090 3 gusting 5 32.8
2016-Jul-01 11:40 090 3 gusting 5 32.8
2016-Jul-01 11:35 090 5 gusting 8 33.3
2016-Jul-01 11:30 112 6 gusting 8 33.9
2016-Jul-01 11:25 067 4 gusting 6 33.9
2016-Jul-01 11:20 135 2 gusting 4 33.9
2016-Jul-01 11:15 33.9
2016-Jul-01 11:10 225 1 gusting 3 33.3
2016-Jul-01 11:05 090 3 gusting 5 33.9
2016-Jul-01 11:00 112 4 gusting 6 33.9
2016-Jul-01 10:55 112 2 gusting 5 33.3
2016-Jul-01 10:50 337 3 gusting 5 33.3
2016-Jul-01 10:45 180 3 gusting 9 33.3
2016-Jul-01 10:40 112 5 gusting 7 32.8
2016-Jul-01 10:35 337 4 gusting 6 32.8
2016-Jul-01 10:30 022 4 gusting 7 32.8
2016-Jul-01 10:25 32.8
2016-Jul-01 10:20 337 5 gusting 6 32.8
2016-Jul-01 10:15 32.2
2016-Jul-01 10:10 337 5 gusting 7 32.8
2016-Jul-01 10:05 045 3 gusting 6 32.8
2016-Jul-01 10:00 202 0 gusting 1 32.8
2016-Jul-01 09:55 045 3 gusting 5 32.8
2016-Jul-01 09:50 112 5 gusting 7 32.8
2016-Jul-01 09:45 180 2 gusting 3 32.8
2016-Jul-01 09:40 067 3 gusting 7 32.2
2016-Jul-01 09:35 112 2 gusting 5 32.2
2016-Jul-01 09:30 022 3 gusting 6 32.2
2016-Jul-01 09:25 270 0 gusting 2 32.2
2016-Jul-01 09:20 067 2 gusting 3 32.2
2016-Jul-01 09:15 112 3 gusting 5 32.8
2016-Jul-01 09:10 090 6 gusting 7 32.8
2016-Jul-01 09:05 112 1 gusting 2 32.2
2016-Jul-01 09:00 045 1 gusting 3 32.2
2016-Jul-01 08:55 112 2 gusting 3 32.2
2016-Jul-01 08:50 32.2
2016-Jul-01 08:45 045 2 gusting 5 32.8
2016-Jul-01 08:40 112 3 gusting 4 32.8
2016-Jul-01 08:35 045 4 gusting 5 32.8
2016-Jul-01 08:30 32.8
2016-Jul-01 08:25 32.2
2016-Jul-01 08:20 32.2
2016-Jul-01 08:15 180 1 gusting 3 31.7
2016-Jul-01 08:10 090 5 gusting 6 32.2
2016-Jul-01 08:05 337 3 gusting 6 32.2
2016-Jul-01 08:00 32.2
2016-Jul-01 07:55 225 1 gusting 3 32.2
2016-Jul-01 07:50 32.2
2016-Jul-01 07:45 090 4 gusting 5 32.8
2016-Jul-01 07:40 045 1 gusting 3 32.8
2016-Jul-01 07:35 32.2
2016-Jul-01 07:30 32.2
2016-Jul-01 07:25 090 2 gusting 3 31.7
2016-Jul-01 07:20 292 3 gusting 5 31.1
2016-Jul-01 07:15 31.1
2016-Jul-01 07:10 31.1
2016-Jul-01 07:05 022 3 gusting 4 31.1
2016-Jul-01 07:00 022 3 gusting 5 30.6
2016-Jul-01 06:55 045 3 gusting 5 30.6
2016-Jul-01 06:50 045 1 gusting 3 30.6
2016-Jul-01 06:45 30.6
2016-Jul-01 06:40 31.1
2016-Jul-01 06:35 045 2 gusting 3 31.7
2016-Jul-01 06:30 022 1 gusting 3 31.7
2016-Jul-01 06:25 022 0 gusting 1 31.7
2016-Jul-01 06:20 022 0 gusting 1 31.7
2016-Jul-01 06:15 022 1 gusting 1 31.1
2016-Jul-01 06:10 022 0 gusting 2 30.6
2016-Jul-01 06:05 337 0 gusting 1 30.0
2016-Jul-01 06:00 337 1 gusting 2 30.0
2016-Jul-01 05:55 292 2 gusting 3 30.0
2016-Jul-01 05:50 292 0 gusting 1 30.0
2016-Jul-01 05:45 270 0 gusting 1 29.4
2016-Jul-01 05:40 29.4
2016-Jul-01 05:35 29.4
2016-Jul-01 05:30 337 28.9
2016-Jul-01 05:25 28.3
2016-Jul-01 05:20 315 1 gusting 1 27.8
2016-Jul-01 05:15 157 27.2
2016-Jul-01 05:10 045 0 gusting 1 26.7
2016-Jul-01 05:05 292 0 gusting 0 26.1
2016-Jul-01 05:00 292 0 gusting 1 25.6
2016-Jul-01 04:55 090 0 gusting 1 25.6
2016-Jul-01 04:50 135 25.0
2016-Jul-01 04:45 135 0 gusting 1 24.4
2016-Jul-01 04:40 090 0 gusting 0 23.9
2016-Jul-01 04:35 067 1 gusting 3 23.9
2016-Jul-01 04:30 112 0 gusting 0 23.3
2016-Jul-01 04:25 112 0 gusting 1 22.8
2016-Jul-01 04:20 112 0 gusting 0 22.8
2016-Jul-01 04:15 045 0 gusting 0 22.2
2016-Jul-01 04:10 022 1 gusting 1 21.7
2016-Jul-01 04:05 022 1 gusting 1 21.1
2016-Jul-01 04:00 022 1 gusting 1 20.6
2016-Jul-01 03:55 022 0 gusting 1 19.4
2016-Jul-01 03:50 045 19.4
2016-Jul-01 03:45 112 0 gusting 1 19.4
2016-Jul-01 03:40 090 0 gusting 0 19.4
2016-Jul-01 03:35 090 0 gusting 1 19.4
2016-Jul-01 03:30 112 0 gusting 1 19.4
2016-Jul-01 03:25 090 19.4
2016-Jul-01 03:20 045 19.4
2016-Jul-01 03:15 090 2 gusting 3 19.4
2016-Jul-01 03:10 090 0 gusting 2 19.4
2016-Jul-01 03:05 090 1 gusting 3 18.9
2016-Jul-01 03:00 112 1 gusting 1 18.9
2016-Jul-01 02:55 090 18.9
2016-Jul-01 02:50 067 18.9
2016-Jul-01 02:45 045 1 gusting 1 18.9
2016-Jul-01 02:40 090 0 gusting 0 18.3
2016-Jul-01 02:35 18.9
2016-Jul-01 02:30 18.9
2016-Jul-01 02:25 022 18.9
2016-Jul-01 02:20 112 18.9
2016-Jul-01 02:15 157 18.9
2016-Jul-01 02:10 337 18.9
2016-Jul-01 02:05 022 0 gusting 1 18.9
2016-Jul-01 02:00 157 19.4
2016-Jul-01 01:55 112 1 gusting 1 19.4
2016-Jul-01 01:50 090 1 gusting 2 19.4
2016-Jul-01 01:45 19.4
2016-Jul-01 01:40 022 1 gusting 1 19.4
2016-Jul-01 01:35 022 0 gusting 1 19.4
2016-Jul-01 01:30 225 19.4
2016-Jul-01 01:25 045 19.4
2016-Jul-01 01:20 022 19.4
2016-Jul-01 01:15 19.4
2016-Jul-01 01:10 19.4
2016-Jul-01 01:05 180 19.4
2016-Jul-01 01:00 067 19.4
2016-Jul-01 00:55 090 19.4
2016-Jul-01 00:50 090 19.4
2016-Jul-01 00:45 022 20.0
2016-Jul-01 00:40 067 20.0
2016-Jul-01 00:35 090 0 gusting 1 20.0
2016-Jul-01 00:30 112 0 gusting 0 20.0
2016-Jul-01 00:25 112 1 gusting 1 20.0
2016-Jul-01 00:20 112 1 gusting 1 20.0
2016-Jul-01 00:15 090 1 gusting 2 20.0
2016-Jul-01 00:10 090 1 gusting 1 20.0
2016-Jul-01 00:05 090 1 gusting 1 19.4
2016-Jul-01 00:00 090 1 gusting 2 20.0
2016-Jun-30 23:55 067 1 gusting 2 20.0
2016-Jun-30 23:50 090 0 gusting 0 20.0
2016-Jun-30 23:45 090 0 gusting 1 20.0
2016-Jun-30 23:40 112 1 gusting 1 20.0
2016-Jun-30 23:35 090 0 gusting 1 20.0
2016-Jun-30 23:30 090 20.0
2016-Jun-30 23:25 20.0
2016-Jun-30 23:20 067 20.0
2016-Jun-30 23:15 045 20.6
2016-Jun-30 23:10 090 0 gusting 1 20.6
2016-Jun-30 23:05 090 20.6
2016-Jun-30 23:00 090 0 gusting 1 20.6
2016-Jun-30 22:55 090 0 gusting 1 20.6
2016-Jun-30 22:50 090 20.6
2016-Jun-30 22:45 202 0 gusting 0 20.6
2016-Jun-30 22:40 315 20.6
2016-Jun-30 22:35 045 20.6
2016-Jun-30 22:30 022 20.6
2016-Jun-30 22:25 112 21.1
2016-Jun-30 22:20 090 21.1
2016-Jun-30 22:15 337 21.1
2016-Jun-30 22:10 022 21.7
2016-Jun-30 22:05 022 0 gusting 1 21.7
2016-Jun-30 22:00 337 0 gusting 1 21.7
2016-Jun-30 21:55 045 0 gusting 0 21.7
2016-Jun-30 21:50 090 21.7
2016-Jun-30 21:45 067 0 gusting 1 21.7
2016-Jun-30 21:40 045 1 gusting 2 21.7
2016-Jun-30 21:35 21.7
2016-Jun-30 21:30 21.7
2016-Jun-30 21:25 022 1 gusting 2 21.7
2016-Jun-30 21:20 022 1 gusting 1 21.7
2016-Jun-30 21:15 21.7
2016-Jun-30 21:10 022 1 gusting 1 21.7
2016-Jun-30 21:05 21.7
2016-Jun-30 21:00 21.7
2016-Jun-30 20:55 022 1 gusting 1 21.7
2016-Jun-30 20:50 21.7
2016-Jun-30 20:45 022 1 gusting 2 21.7
2016-Jun-30 20:40 337 0 gusting 1 21.7
2016-Jun-30 20:35 21.7
2016-Jun-30 20:30 21.7
2016-Jun-30 20:25 21.7
2016-Jun-30 20:20 21.7
2016-Jun-30 20:15 21.7
2016-Jun-30 20:10 21.7
2016-Jun-30 20:05 045 0 gusting 1 21.7
2016-Jun-30 20:00 337 21.7
2016-Jun-30 19:55 022 0 gusting 0 21.7
2016-Jun-30 19:50 21.7
2016-Jun-30 19:45 21.7
2016-Jun-30 19:40 21.7
2016-Jun-30 19:35 21.7
2016-Jun-30 19:30 21.7
2016-Jun-30 19:25 337 22.2
2016-Jun-30 19:20 067 22.2
2016-Jun-30 19:15 090 22.2
2016-Jun-30 19:10 112 22.2
2016-Jun-30 19:05 22.8
2016-Jun-30 19:00 22.8
2016-Jun-30 18:55 292 0 gusting 1 22.8
2016-Jun-30 18:50 225 1 gusting 3 22.8
2016-Jun-30 18:45 180 0 gusting 0 22.8
2016-Jun-30 18:40 225 22.8
2016-Jun-30 18:35 202 22.8
2016-Jun-30 18:30 315 23.3
2016-Jun-30 18:25 202 23.3
2016-Jun-30 18:20 112 0 gusting 1 23.3
2016-Jun-30 18:15 225 23.3
2016-Jun-30 18:10 112 23.3
2016-Jun-30 18:05 090 0 gusting 0 23.9
2016-Jun-30 18:00 112 23.9
2016-Jun-30 17:55 180 0 gusting 1 24.4
2016-Jun-30 17:50 180 0 gusting 1 25.0
2016-Jun-30 17:45 225 25.0
2016-Jun-30 17:40 315 25.6
2016-Jun-30 17:35 022 26.1
2016-Jun-30 17:30 247 0 gusting 1 26.1
2016-Jun-30 17:25 112 26.7
2016-Jun-30 17:20 202 0 gusting 1 26.7
2016-Jun-30 17:15 180 1 gusting 3 27.2
2016-Jun-30 17:10 135 2 gusting 3 27.2
2016-Jun-30 17:05 225 2 gusting 4 27.8
2016-Jun-30 17:00 180 2 gusting 3 27.8
2016-Jun-30 16:55 225 2 gusting 5 28.3
2016-Jun-30 16:50 180 3 gusting 4 28.9
2016-Jun-30 16:45 180 1 gusting 4 29.4
2016-Jun-30 16:40 270 1 gusting 2 29.4
2016-Jun-30 16:35 315 29.4
2016-Jun-30 16:30 202 2 gusting 5 29.4
2016-Jun-30 16:25 135 3 gusting 6 29.4
2016-Jun-30 16:20 202 3 gusting 6 30.0
2016-Jun-30 16:15 202 2 gusting 5 30.6
2016-Jun-30 16:10 315 1 gusting 3 31.1
2016-Jun-30 16:05 270 3 gusting 5 31.7
2016-Jun-30 16:00 270 1 gusting 3 31.7
2016-Jun-30 15:55 292 0 gusting 1 31.7
2016-Jun-30 15:50 247 1 gusting 2 31.7
2016-Jun-30 15:45 247 31.7
2016-Jun-30 15:40 247 1 gusting 3 31.7
2016-Jun-30 15:35 315 1 gusting 3 31.7
2016-Jun-30 15:30 270 1 gusting 3 31.7
2016-Jun-30 15:25 315 3 gusting 5 31.7
2016-Jun-30 15:20 225 1 gusting 2 32.2
2016-Jun-30 15:15 225 0 gusting 1 31.7
2016-Jun-30 15:10 337 2 gusting 4 31.7
2016-Jun-30 15:05 337 3 gusting 6 32.2
2016-Jun-30 15:00 022 3 gusting 5 31.7
2016-Jun-30 14:55 31.1
2016-Jun-30 14:50 292 3 gusting 4 31.1
2016-Jun-30 14:45 112 3 gusting 6 31.1
2016-Jun-30 14:40 112 5 gusting 7 31.1
2016-Jun-30 14:35 045 4 gusting 6 31.1
2016-Jun-30 14:30 067 4 gusting 6 31.7
2016-Jun-30 14:26 31.7
2016-Jun-30 14:20 31.7
2016-Jun-30 14:15 045 2 gusting 4 31.7
2016-Jun-30 14:10 045 2 gusting 3 31.1
2016-Jun-30 14:05 225 4 gusting 7 30.6
2016-Jun-30 14:00 135 5 gusting 8 31.1
2016-Jun-30 13:55 090 6 gusting 7 31.7
2016-Jun-30 13:50 32.2
2016-Jun-30 13:45 31.7
2016-Jun-30 13:40 090 2 gusting 3 31.1
2016-Jun-30 13:35 067 3 gusting 5 31.1
2016-Jun-30 13:30 337 4 gusting 7 31.7
2016-Jun-30 13:25 045 5 gusting 8 32.2
2016-Jun-30 13:20 31.7
2016-Jun-30 13:15 045 1 gusting 3 31.7
2016-Jun-30 13:10 045 3 gusting 5 31.7
2016-Jun-30 13:05 337 3 gusting 6 31.1
2016-Jun-30 13:00 31.1
2016-Jun-30 12:55 045 3 gusting 5 31.1
2016-Jun-30 12:50 135 5 gusting 6 30.6
2016-Jun-30 12:45 270 0 gusting 1 29.4
2016-Jun-30 12:40 022 2 gusting 4 28.9
2016-Jun-30 12:35 315 0 gusting 1 28.9
2016-Jun-30 12:30 337 1 gusting 3 28.3
2016-Jun-30 12:25 28.9
2016-Jun-30 12:20 29.4
2016-Jun-30 12:15 045 5 gusting 8 29.4
2016-Jun-30 12:10 090 2 gusting 4 30.0
2016-Jun-30 12:05 30.6
2016-Jun-30 12:00 315 1 gusting 4 31.1
2016-Jun-30 11:55 045 4 gusting 8 32.2
2016-Jun-30 11:50 180 4 gusting 6 32.2
2016-Jun-30 11:45 31.7
2016-Jun-30 11:40 022 3 gusting 5 31.7
2016-Jun-30 11:35 045 6 gusting 11 31.7
2016-Jun-30 11:30 180 3 gusting 5 31.1
2016-Jun-30 11:25 045 3 gusting 5 31.1
2016-Jun-30 11:20 022 5 gusting 6 31.7
2016-Jun-30 11:15 022 3 gusting 6 31.1
2016-Jun-30 11:10 045 4 gusting 6 31.1
2016-Jun-30 11:05 045 5 gusting 8 31.7
2016-Jun-30 11:00 090 2 gusting 5 31.7
2016-Jun-30 10:55 045 4 gusting 6 31.7
2016-Jun-30 10:50 022 5 gusting 6 31.7
2016-Jun-30 10:45 045 1 gusting 4 31.1
2016-Jun-30 10:40 045 5 gusting 8 31.7
2016-Jun-30 10:35 045 2 gusting 7 31.1
2016-Jun-30 10:30 31.1
2016-Jun-30 10:25 045 3 gusting 6 31.7
2016-Jun-30 10:20 112 2 gusting 5 31.7
2016-Jun-30 10:15 022 5 gusting 6 31.1
2016-Jun-30 10:10 045 3 gusting 5 31.1
2016-Jun-30 10:05 31.7
2016-Jun-30 10:00 225 3 gusting 6 31.1
2016-Jun-30 09:55 045 3 gusting 7 31.7
2016-Jun-30 09:50 225 2 gusting 3 31.1
2016-Jun-30 09:45 022 6 gusting 7 30.6
2016-Jun-30 09:40 067 3 gusting 6 30.6
2016-Jun-30 09:35 270 3 gusting 6 30.6
2016-Jun-30 09:30 315 5 gusting 9 31.1
2016-Jun-30 09:25 045 4 gusting 5 31.7
2016-Jun-30 09:20 090 3 gusting 6 31.7
2016-Jun-30 09:15 090 2 gusting 5 31.1
2016-Jun-30 09:10 022 5 gusting 7 30.6
2016-Jun-30 09:05 022 4 gusting 10 31.1
2016-Jun-30 09:00 045 4 gusting 9 31.7
2016-Jun-30 08:55 247 3 gusting 5 32.2
2016-Jun-30 08:50 090 3 gusting 6 32.2
2016-Jun-30 08:45 090 5 gusting 8 32.2
2016-Jun-30 08:40 225 1 gusting 3 32.2
2016-Jun-30 08:35 045 0 gusting 2 31.1
2016-Jun-30 08:30 090 2 gusting 4 30.6
2016-Jun-30 08:25 022 5 gusting 7 30.6
2016-Jun-30 08:20 045 4 gusting 6 31.1
2016-Jun-30 08:15 31.1
2016-Jun-30 08:10 045 6 gusting 7 31.1
2016-Jun-30 08:05 067 3 gusting 5 31.1
2016-Jun-30 08:00 022 5 gusting 7 30.6
2016-Jun-30 07:55 067 1 gusting 3 30.6
2016-Jun-30 07:50 045 2 gusting 7 30.6
2016-Jun-30 07:45 045 1 gusting 3 30.6
2016-Jun-30 07:40 045 4 gusting 8 30.6
2016-Jun-30 07:35 225 1 gusting 3 30.0
2016-Jun-30 07:30 045 3 gusting 6 30.0
2016-Jun-30 07:25 30.0
2016-Jun-30 07:20 090 1 gusting 4 29.4
2016-Jun-30 07:15 29.4
2016-Jun-30 07:10 28.9
2016-Jun-30 07:05 28.9
2016-Jun-30 07:00 28.9
2016-Jun-30 06:55 022 4 gusting 6 28.9
2016-Jun-30 06:50 28.9
2016-Jun-30 06:45 022 4 gusting 7 29.4
2016-Jun-30 06:40 022 2 gusting 5 29.4
2016-Jun-30 06:35 090 2 gusting 5 29.4
2016-Jun-30 06:30 090 1 gusting 4 28.9
2016-Jun-30 06:25 28.9
2016-Jun-30 06:20 28.3
2016-Jun-30 06:15 337 2 gusting 4 28.3
2016-Jun-30 06:10 27.8
2016-Jun-30 06:05 27.8
2016-Jun-30 06:00 045 4 gusting 6 27.8
2016-Jun-30 05:55 045 6 gusting 7 28.3
2016-Jun-30 05:50 28.3
2016-Jun-30 05:45 292 1 gusting 3 27.8
2016-Jun-30 05:40 270 2 gusting 4 27.8
2016-Jun-30 05:35 315 2 gusting 5 28.3
2016-Jun-30 05:30 180 27.8
2016-Jun-30 05:25 180 27.2
2016-Jun-30 05:20 135 27.2
2016-Jun-30 05:15 270 26.7
2016-Jun-30 05:10 315 25.6
2016-Jun-30 05:05 225 0 gusting 1 25.0
2016-Jun-30 05:00 292 0 gusting 2 25.0
2016-Jun-30 04:55 270 0 gusting 0 24.4
2016-Jun-30 04:50 270 0 gusting 1 24.4
2016-Jun-30 04:45 270 23.9
2016-Jun-30 04:40 270 23.3
2016-Jun-30 04:35 292 23.3
2016-Jun-30 04:30 337 22.8
2016-Jun-30 04:25 337 22.2
2016-Jun-30 04:20 090 21.7
2016-Jun-30 04:15 067 21.1
2016-Jun-30 04:10 045 20.6
2016-Jun-30 04:05 090 0 gusting 0 20.0
2016-Jun-30 04:00 067 19.4
2016-Jun-30 03:55 067 18.9
2016-Jun-30 03:50 022 18.3
2016-Jun-30 03:45 090 18.3
2016-Jun-30 03:40 090 18.3
2016-Jun-30 03:35 045 18.3
2016-Jun-30 03:30 045 18.3
2016-Jun-30 03:25 045 18.3
2016-Jun-30 03:20 045 18.3
2016-Jun-30 03:15 18.3
2016-Jun-30 03:10 045 18.3
2016-Jun-30 03:05 090 0 gusting 2 18.3
2016-Jun-30 03:00 112 18.3
2016-Jun-30 02:55 090 0 gusting 1 18.3
2016-Jun-30 02:50 067 18.3
2016-Jun-30 02:45 045 18.3
2016-Jun-30 02:40 045 18.3
2016-Jun-30 02:35 067 18.3
2016-Jun-30 02:30 067 0 gusting 1 18.3
2016-Jun-30 02:25 067 18.3
2016-Jun-30 02:20 090 0 gusting 0 18.3
2016-Jun-30 02:15 045 18.3
2016-Jun-30 02:10 045 18.3
2016-Jun-30 02:05 090 0 gusting 0 18.3
2016-Jun-30 02:00 090 18.3
2016-Jun-30 01:55 090 18.3
2016-Jun-30 01:50 090 18.3
2016-Jun-30 01:45 045 18.3
2016-Jun-30 01:40 045 18.3
2016-Jun-30 01:35 18.3
2016-Jun-30 01:30 18.3
2016-Jun-30 01:25 090 0 gusting 1 18.3
2016-Jun-30 01:20 090 0 gusting 1 18.3
2016-Jun-30 01:15 067 18.3
2016-Jun-30 01:10 067 18.3
2016-Jun-30 01:05 157 18.3
2016-Jun-30 01:00 157 18.3
2016-Jun-30 00:55 135 18.3
2016-Jun-30 00:50 067 18.3
2016-Jun-30 00:45 067 18.3
2016-Jun-30 00:40 045 18.3
2016-Jun-30 00:35 022 18.9
2016-Jun-30 00:30 067 18.9
2016-Jun-30 00:25 090 18.9
2016-Jun-30 00:20 19.4
2016-Jun-30 00:15 337 19.4
2016-Jun-30 00:10 022 20.0
2016-Jun-30 00:05 20.0
2016-Jun-30 00:00 315 1 gusting 2 19.4
2016-Jun-29 23:55 045 1 gusting 1 19.4
2016-Jun-29 23:50 19.4
2016-Jun-29 23:45 19.4
2016-Jun-29 23:40 022 1 gusting 2 19.4
2016-Jun-29 23:35 022 0 gusting 1 19.4
2016-Jun-29 23:30 045 1 gusting 2 18.9
2016-Jun-29 23:25 18.9
2016-Jun-29 23:20 022 0 gusting 0 19.4
2016-Jun-29 23:15 19.4
2016-Jun-29 23:10 315 0 gusting 0 19.4
2016-Jun-29 23:05 18.9
2016-Jun-29 23:00 18.9
2016-Jun-29 22:55 18.9
2016-Jun-29 22:50 18.9
2016-Jun-29 22:45 18.9
2016-Jun-29 22:40 18.9
2016-Jun-29 22:35 292 18.9
2016-Jun-29 22:30 022 18.9
2016-Jun-29 22:25 18.9
2016-Jun-29 22:20 18.9
2016-Jun-29 22:15 18.9
2016-Jun-29 22:10 090 18.9
2016-Jun-29 22:05 112 18.9
2016-Jun-29 22:00 090 18.9
2016-Jun-29 21:55 112 0 gusting 0 19.4
2016-Jun-29 21:50 090 19.4
2016-Jun-29 21:45 090 19.4
2016-Jun-29 21:40 045 0 gusting 1 19.4
2016-Jun-29 21:35 337 19.4
2016-Jun-29 21:30 045 0 gusting 0 19.4
2016-Jun-29 21:25 090 0 gusting 0 19.4
2016-Jun-29 21:20 157 19.4
2016-Jun-29 21:15 090 0 gusting 1 19.4
2016-Jun-29 21:10 112 1 gusting 2 19.4
2016-Jun-29 21:05 090 1 gusting 1 19.4
2016-Jun-29 21:00 135 0 gusting 1 20.0
2016-Jun-29 20:55 112 20.0
2016-Jun-29 20:50 090 1 gusting 1 20.0
2016-Jun-29 20:45 135 20.6
2016-Jun-29 20:40 225 0 gusting 1 20.6
2016-Jun-29 20:35 045 1 gusting 1 20.6
2016-Jun-29 20:30 20.6
2016-Jun-29 20:25 045 0 gusting 0 20.6
2016-Jun-29 20:20 045 0 gusting 1 20.6
2016-Jun-29 20:15 20.6
2016-Jun-29 20:10 20.6
2016-Jun-29 20:05 022 0 gusting 0 20.6
2016-Jun-29 20:00 090 0 gusting 0 20.6
2016-Jun-29 19:55 022 1 gusting 1 20.6
2016-Jun-29 19:50 022 0 gusting 0 20.6
2016-Jun-29 19:45 045 20.6
2016-Jun-29 19:40 090 20.6
2016-Jun-29 19:35 067 20.6
2016-Jun-29 19:30 180 21.1
2016-Jun-29 19:25 202 21.1
2016-Jun-29 19:20 067 0 gusting 1 21.1
2016-Jun-29 19:15 090 21.1
2016-Jun-29 19:10 337 21.1
2016-Jun-29 19:05 247 0 gusting 1 21.7
2016-Jun-29 19:00 292 0 gusting 1 21.7
2016-Jun-29 18:55 337 0 gusting 1 21.7
2016-Jun-29 18:50 225 21.7
2016-Jun-29 18:45 247 21.7
2016-Jun-29 18:40 247 0 gusting 1 22.2
2016-Jun-29 18:35 292 22.2
2016-Jun-29 18:30 315 22.2
2016-Jun-29 18:25 22.2
2016-Jun-29 18:20 22.8
2016-Jun-29 18:15 22.8
2016-Jun-29 18:10 090 0 gusting 1 22.8
2016-Jun-29 18:05 23.3
2016-Jun-29 18:00 315 0 gusting 1 23.3
2016-Jun-29 17:55 23.9
2016-Jun-29 17:50 270 3 gusting 4 23.9
2016-Jun-29 17:45 23.9
2016-Jun-29 17:40 24.4
2016-Jun-29 17:35 045 5 gusting 7 25.0
2016-Jun-29 17:30 25.6
2016-Jun-29 17:25 270 1 gusting 2 25.6
2016-Jun-29 17:20 315 5 gusting 7 25.6
2016-Jun-29 17:15 337 6 gusting 7 26.1
2016-Jun-29 17:10 045 5 gusting 7 26.7
2016-Jun-29 17:05 26.7
2016-Jun-29 17:00 067 6 gusting 7 26.7
2016-Jun-29 16:55 27.2
2016-Jun-29 16:50 315 5 gusting 8 27.2
2016-Jun-29 16:45 337 6 gusting 8 27.8
2016-Jun-29 16:40 022 5 gusting 8 27.8
2016-Jun-29 16:35 315 4 gusting 8 27.8
2016-Jun-29 16:30 315 5 gusting 8 28.3
2016-Jun-29 16:25 270 4 gusting 7 28.3
2016-Jun-29 16:20 292 2 gusting 6 28.3
2016-Jun-29 16:15 315 6 gusting 8 28.9
2016-Jun-29 16:10 315 6 gusting 9 28.9
2016-Jun-29 16:05 337 5 gusting 8 28.9
2016-Jun-29 16:00 28.9
2016-Jun-29 15:55 315 6 gusting 9 28.9
2016-Jun-29 15:50 247 4 gusting 7 29.4
2016-Jun-29 15:45 29.4
2016-Jun-29 15:40 292 6 gusting 8 29.4
2016-Jun-29 15:35 270 6 gusting 7 29.4
2016-Jun-29 15:30 045 8 gusting 12 30.0
2016-Jun-29 15:25 30.0
2016-Jun-29 15:20 315 6 gusting 9 30.0
2016-Jun-29 15:15 247 6 gusting 10 30.0
2016-Jun-29 15:10 315 5 gusting 9 30.6
2016-Jun-29 15:05 337 5 gusting 7 30.6
2016-Jun-29 15:00 315 4 gusting 6 30.6
2016-Jun-29 14:55 045 1 gusting 5 31.1
2016-Jun-29 14:50 292 3 gusting 5 30.6
2016-Jun-29 14:45 31.1
2016-Jun-29 14:40 31.1
2016-Jun-29 14:35 315 5 gusting 8 30.6
2016-Jun-29 14:30 315 2 gusting 4 30.0
2016-Jun-29 14:25 022 7 gusting 12 30.6
2016-Jun-29 14:20 31.1
2016-Jun-29 14:15 270 5 gusting 8 31.1
2016-Jun-29 14:10 315 5 gusting 7 31.1
2016-Jun-29 14:05 315 3 gusting 6 31.1
2016-Jun-29 14:00 31.1
2016-Jun-29 13:55 30.6
2016-Jun-29 13:50 337 5 gusting 10 31.1
2016-Jun-29 13:45 30.6
2016-Jun-29 13:40 31.1
2016-Jun-29 13:35 247 4 gusting 8 31.1
2016-Jun-29 13:30 31.1
2016-Jun-29 13:25 31.7
2016-Jun-29 13:20 270 4 gusting 6 31.7
2016-Jun-29 13:15 32.2
2016-Jun-29 13:10 337 2 gusting 4 31.7
2016-Jun-29 13:05 270 2 gusting 4 31.1
2016-Jun-29 13:00 045 5 gusting 7 30.6